sensor_id;sensor_type;location;lat;lon;timestamp;P1;durP1;ratioP1;P2;durP2;ratioP2
19482;SDS011;9882;51.166;6.992;2023-06-14T00:00:47;12.40;;;4.47;;
19482;SDS011;9882;51.166;6.992;2023-06-14T00:03:16;12.60;;;4.97;;
19482;SDS011;9882;51.166;6.992;2023-06-14T00:05:49;10.00;;;4.10;;
19482;SDS011;9882;51.166;6.992;2023-06-14T00:08:18;10.52;;;4.70;;
19482;SDS011;9882;51.166;6.992;2023-06-14T00:10:49;10.80;;;4.80;;
19482;SDS011;9882;51.166;6.992;2023-06-14T00:13:18;13.43;;;5.15;;
19482;SDS011;9882;51.166;6.992;2023-06-14T00:15:47;8.90;;;4.38;;
19482;SDS011;9882;51.166;6.992;2023-06-14T00:18:16;17.67;;;5.32;;
19482;SDS011;9882;51.166;6.992;2023-06-14T00:20:45;8.35;;;4.70;;
19482;SDS011;9882;51.166;6.992;2023-06-14T00:23:14;11.05;;;4.47;;
19482;SDS011;9882;51.166;6.992;2023-06-14T00:25:43;11.85;;;4.90;;
19482;SDS011;9882;51.166;6.992;2023-06-14T00:28:13;11.95;;;5.00;;
19482;SDS011;9882;51.166;6.992;2023-06-14T00:30:43;108.57;;;10.02;;
19482;SDS011;9882;51.166;6.992;2023-06-14T00:33:13;30.33;;;5.72;;
19482;SDS011;9882;51.166;6.992;2023-06-14T00:35:43;14.80;;;5.30;;
19482;SDS011;9882;51.166;6.992;2023-06-14T00:38:12;12.57;;;4.85;;
19482;SDS011;9882;51.166;6.992;2023-06-14T00:40:41;44.53;;;6.90;;
19482;SDS011;9882;51.166;6.992;2023-06-14T00:43:14;74.93;;;8.32;;
19482;SDS011;9882;51.166;6.992;2023-06-14T00:45:43;20.73;;;5.05;;
19482;SDS011;9882;51.166;6.992;2023-06-14T00:48:13;28.13;;;6.00;;
19482;SDS011;9882;51.166;6.992;2023-06-14T00:50:43;131.30;;;10.55;;
19482;SDS011;9882;51.166;6.992;2023-06-14T00:53:15;24.65;;;4.90;;
19482;SDS011;9882;51.166;6.992;2023-06-14T00:55:45;42.60;;;5.68;;
19482;SDS011;9882;51.166;6.992;2023-06-14T00:58:17;15.50;;;5.50;;
19482;SDS011;9882;51.166;6.992;2023-06-14T01:00:49;28.38;;;6.15;;
19482;SDS011;9882;51.166;6.992;2023-06-14T01:03:18;27.88;;;5.72;;
19482;SDS011;9882;51.166;6.992;2023-06-14T01:05:49;11.57;;;5.00;;
19482;SDS011;9882;51.166;6.992;2023-06-14T01:08:24;13.82;;;4.95;;
19482;SDS011;9882;51.166;6.992;2023-06-14T01:11:01;24.85;;;6.00;;
19482;SDS011;9882;51.166;6.992;2023-06-14T01:13:37;27.73;;;5.43;;
19482;SDS011;9882;51.166;6.992;2023-06-14T01:16:08;10.30;;;4.60;;
19482;SDS011;9882;51.166;6.992;2023-06-14T01:18:38;16.77;;;5.40;;
19482;SDS011;9882;51.166;6.992;2023-06-14T01:21:19;26.25;;;5.28;;
19482;SDS011;9882;51.166;6.992;2023-06-14T01:23:50;11.10;;;4.97;;
19482;SDS011;9882;51.166;6.992;2023-06-14T01:26:21;10.77;;;4.78;;
19482;SDS011;9882;51.166;6.992;2023-06-14T01:28:51;10.80;;;4.90;;
19482;SDS011;9882;51.166;6.992;2023-06-14T01:31:25;9.00;;;4.35;;
19482;SDS011;9882;51.166;6.992;2023-06-14T01:33:56;10.65;;;4.75;;
19482;SDS011;9882;51.166;6.992;2023-06-14T01:36:25;13.90;;;5.53;;
19482;SDS011;9882;51.166;6.992;2023-06-14T01:38:58;13.10;;;4.93;;
19482;SDS011;9882;51.166;6.992;2023-06-14T01:41:27;12.88;;;4.90;;
19482;SDS011;9882;51.166;6.992;2023-06-14T01:43:58;16.40;;;5.53;;
19482;SDS011;9882;51.166;6.992;2023-06-14T01:46:27;8.93;;;4.60;;
19482;SDS011;9882;51.166;6.992;2023-06-14T01:48:56;12.40;;;5.22;;
19482;SDS011;9882;51.166;6.992;2023-06-14T01:51:26;11.18;;;5.18;;
19482;SDS011;9882;51.166;6.992;2023-06-14T01:53:55;14.85;;;5.20;;
19482;SDS011;9882;51.166;6.992;2023-06-14T01:56:25;11.55;;;5.32;;
19482;SDS011;9882;51.166;6.992;2023-06-14T01:58:55;10.55;;;4.82;;
19482;SDS011;9882;51.166;6.992;2023-06-14T02:01:25;11.80;;;4.90;;
19482;SDS011;9882;51.166;6.992;2023-06-14T02:03:54;9.50;;;4.68;;
19482;SDS011;9882;51.166;6.992;2023-06-14T02:06:23;10.55;;;4.40;;
19482;SDS011;9882;51.166;6.992;2023-06-14T02:08:55;11.90;;;5.20;;
19482;SDS011;9882;51.166;6.992;2023-06-14T02:11:29;9.85;;;4.60;;
19482;SDS011;9882;51.166;6.992;2023-06-14T02:13:58;10.98;;;4.50;;
19482;SDS011;9882;51.166;6.992;2023-06-14T02:16:28;11.13;;;4.75;;
19482;SDS011;9882;51.166;6.992;2023-06-14T02:18:57;10.93;;;4.38;;
19482;SDS011;9882;51.166;6.992;2023-06-14T02:21:27;7.53;;;4.18;;
19482;SDS011;9882;51.166;6.992;2023-06-14T02:23:56;10.43;;;4.47;;
19482;SDS011;9882;51.166;6.992;2023-06-14T02:26:29;7.93;;;4.28;;
19482;SDS011;9882;51.166;6.992;2023-06-14T02:28:59;9.43;;;4.28;;
19482;SDS011;9882;51.166;6.992;2023-06-14T02:31:28;8.50;;;4.15;;
19482;SDS011;9882;51.166;6.992;2023-06-14T02:33:57;9.82;;;4.07;;
19482;SDS011;9882;51.166;6.992;2023-06-14T02:36:26;11.40;;;4.18;;
19482;SDS011;9882;51.166;6.992;2023-06-14T02:38:56;11.20;;;4.55;;
19482;SDS011;9882;51.166;6.992;2023-06-14T02:41:25;9.77;;;4.60;;
19482;SDS011;9882;51.166;6.992;2023-06-14T02:43:56;9.68;;;4.15;;
19482;SDS011;9882;51.166;6.992;2023-06-14T02:46:28;11.48;;;4.50;;
19482;SDS011;9882;51.166;6.992;2023-06-14T02:48:57;9.68;;;4.40;;
19482;SDS011;9882;51.166;6.992;2023-06-14T02:51:26;7.80;;;3.95;;
19482;SDS011;9882;51.166;6.992;2023-06-14T02:53:55;9.57;;;4.15;;
19482;SDS011;9882;51.166;6.992;2023-06-14T02:56:24;8.25;;;3.97;;
19482;SDS011;9882;51.166;6.992;2023-06-14T02:58:56;8.50;;;4.00;;
19482;SDS011;9882;51.166;6.992;2023-06-14T03:01:25;7.47;;;4.10;;
19482;SDS011;9882;51.166;6.992;2023-06-14T03:04:04;15.82;;;4.10;;
19482;SDS011;9882;51.166;6.992;2023-06-14T03:06:36;13.05;;;4.18;;
19482;SDS011;9882;51.166;6.992;2023-06-14T03:09:07;11.60;;;4.22;;
19482;SDS011;9882;51.166;6.992;2023-06-14T03:11:38;12.32;;;4.35;;
19482;SDS011;9882;51.166;6.992;2023-06-14T03:14:09;11.95;;;3.90;;
19482;SDS011;9882;51.166;6.992;2023-06-14T03:16:42;9.40;;;4.20;;
19482;SDS011;9882;51.166;6.992;2023-06-14T03:19:13;12.00;;;4.03;;
19482;SDS011;9882;51.166;6.992;2023-06-14T03:21:42;8.23;;;4.10;;
19482;SDS011;9882;51.166;6.992;2023-06-14T03:24:11;11.32;;;4.35;;
19482;SDS011;9882;51.166;6.992;2023-06-14T03:26:41;13.43;;;4.55;;
19482;SDS011;9882;51.166;6.992;2023-06-14T03:29:11;13.85;;;4.68;;
19482;SDS011;9882;51.166;6.992;2023-06-14T03:31:54;8.30;;;3.92;;
19482;SDS011;9882;51.166;6.992;2023-06-14T03:34:26;10.85;;;4.03;;
19482;SDS011;9882;51.166;6.992;2023-06-14T03:36:55;11.63;;;4.50;;
19482;SDS011;9882;51.166;6.992;2023-06-14T03:39:24;8.98;;;4.05;;
19482;SDS011;9882;51.166;6.992;2023-06-14T03:41:54;12.18;;;4.30;;
19482;SDS011;9882;51.166;6.992;2023-06-14T03:44:26;9.50;;;4.05;;
19482;SDS011;9882;51.166;6.992;2023-06-14T03:46:55;10.88;;;4.07;;
19482;SDS011;9882;51.166;6.992;2023-06-14T03:49:26;9.52;;;4.20;;
19482;SDS011;9882;51.166;6.992;2023-06-14T03:51:55;10.65;;;4.53;;
19482;SDS011;9882;51.166;6.992;2023-06-14T03:54:24;10.75;;;4.25;;
19482;SDS011;9882;51.166;6.992;2023-06-14T03:57:14;9.73;;;4.30;;
19482;SDS011;9882;51.166;6.992;2023-06-14T03:59:47;12.75;;;4.45;;
19482;SDS011;9882;51.166;6.992;2023-06-14T04:02:16;12.05;;;4.70;;
19482;SDS011;9882;51.166;6.992;2023-06-14T04:04:46;10.63;;;4.85;;
19482;SDS011;9882;51.166;6.992;2023-06-14T04:07:15;28.50;;;5.88;;
19482;SDS011;9882;51.166;6.992;2023-06-14T04:09:46;11.38;;;4.75;;
19482;SDS011;9882;51.166;6.992;2023-06-14T04:12:15;15.07;;;5.40;;
19482;SDS011;9882;51.166;6.992;2023-06-14T04:14:44;9.95;;;4.75;;
19482;SDS011;9882;51.166;6.992;2023-06-14T04:17:15;12.18;;;4.97;;
19482;SDS011;9882;51.166;6.992;2023-06-14T04:19:45;16.52;;;5.38;;
19482;SDS011;9882;51.166;6.992;2023-06-14T04:22:14;9.60;;;4.55;;
19482;SDS011;9882;51.166;6.992;2023-06-14T04:24:43;15.27;;;5.20;;
19482;SDS011;9882;51.166;6.992;2023-06-14T04:27:14;11.32;;;4.70;;
19482;SDS011;9882;51.166;6.992;2023-06-14T04:29:49;14.25;;;5.63;;
19482;SDS011;9882;51.166;6.992;2023-06-14T04:32:26;11.85;;;4.95;;
19482;SDS011;9882;51.166;6.992;2023-06-14T04:34:56;11.02;;;5.13;;
19482;SDS011;9882;51.166;6.992;2023-06-14T04:37:26;13.30;;;5.18;;
19482;SDS011;9882;51.166;6.992;2023-06-14T04:39:57;13.30;;;5.22;;
19482;SDS011;9882;51.166;6.992;2023-06-14T04:42:26;15.50;;;5.15;;
19482;SDS011;9882;51.166;6.992;2023-06-14T04:45:00;11.60;;;5.07;;
19482;SDS011;9882;51.166;6.992;2023-06-14T04:47:30;11.05;;;4.80;;
19482;SDS011;9882;51.166;6.992;2023-06-14T04:49:59;14.73;;;5.13;;
19482;SDS011;9882;51.166;6.992;2023-06-14T04:52:30;12.57;;;4.88;;
19482;SDS011;9882;51.166;6.992;2023-06-14T04:55:00;12.45;;;5.10;;
19482;SDS011;9882;51.166;6.992;2023-06-14T04:57:29;10.63;;;4.25;;
19482;SDS011;9882;51.166;6.992;2023-06-14T05:00:09;9.82;;;4.10;;
19482;SDS011;9882;51.166;6.992;2023-06-14T05:02:46;10.57;;;4.55;;
19482;SDS011;9882;51.166;6.992;2023-06-14T05:05:16;16.67;;;4.90;;
19482;SDS011;9882;51.166;6.992;2023-06-14T05:07:46;13.05;;;4.65;;
19482;SDS011;9882;51.166;6.992;2023-06-14T05:10:16;8.93;;;4.30;;
19482;SDS011;9882;51.166;6.992;2023-06-14T05:12:46;14.57;;;4.55;;
19482;SDS011;9882;51.166;6.992;2023-06-14T05:15:23;10.80;;;4.28;;
19482;SDS011;9882;51.166;6.992;2023-06-14T05:18:00;13.77;;;4.68;;
19482;SDS011;9882;51.166;6.992;2023-06-14T05:20:32;12.40;;;4.65;;
19482;SDS011;9882;51.166;6.992;2023-06-14T05:23:02;8.73;;;4.43;;
19482;SDS011;9882;51.166;6.992;2023-06-14T05:25:31;14.60;;;4.40;;
19482;SDS011;9882;51.166;6.992;2023-06-14T05:28:00;6.30;;;3.60;;
19482;SDS011;9882;51.166;6.992;2023-06-14T05:30:31;10.75;;;4.28;;
19482;SDS011;9882;51.166;6.992;2023-06-14T05:33:00;16.20;;;4.05;;
19482;SDS011;9882;51.166;6.992;2023-06-14T05:35:29;9.35;;;4.20;;
19482;SDS011;9882;51.166;6.992;2023-06-14T05:37:58;11.70;;;4.30;;
19482;SDS011;9882;51.166;6.992;2023-06-14T05:40:28;12.82;;;4.60;;
19482;SDS011;9882;51.166;6.992;2023-06-14T05:42:57;8.57;;;3.88;;
19482;SDS011;9882;51.166;6.992;2023-06-14T05:45:26;10.23;;;4.03;;
19482;SDS011;9882;51.166;6.992;2023-06-14T05:47:56;8.88;;;4.00;;
19482;SDS011;9882;51.166;6.992;2023-06-14T05:50:25;10.52;;;4.20;;
19482;SDS011;9882;51.166;6.992;2023-06-14T05:52:54;8.43;;;3.60;;
19482;SDS011;9882;51.166;6.992;2023-06-14T05:55:23;9.52;;;4.30;;
19482;SDS011;9882;51.166;6.992;2023-06-14T05:57:54;8.27;;;4.10;;
19482;SDS011;9882;51.166;6.992;2023-06-14T06:00:24;14.77;;;4.10;;
19482;SDS011;9882;51.166;6.992;2023-06-14T06:02:53;10.40;;;4.15;;
19482;SDS011;9882;51.166;6.992;2023-06-14T06:05:25;5.88;;;3.45;;
19482;SDS011;9882;51.166;6.992;2023-06-14T06:07:54;10.02;;;4.57;;
19482;SDS011;9882;51.166;6.992;2023-06-14T06:10:23;13.55;;;4.05;;
19482;SDS011;9882;51.166;6.992;2023-06-14T06:12:52;8.05;;;4.15;;
19482;SDS011;9882;51.166;6.992;2023-06-14T06:15:21;11.15;;;3.97;;
19482;SDS011;9882;51.166;6.992;2023-06-14T06:17:50;12.40;;;4.07;;
19482;SDS011;9882;51.166;6.992;2023-06-14T06:20:22;6.68;;;3.72;;
19482;SDS011;9882;51.166;6.992;2023-06-14T06:22:57;9.82;;;3.97;;
19482;SDS011;9882;51.166;6.992;2023-06-14T06:25:26;10.15;;;4.10;;
19482;SDS011;9882;51.166;6.992;2023-06-14T06:27:56;19.52;;;4.10;;
19482;SDS011;9882;51.166;6.992;2023-06-14T06:30:25;8.68;;;3.72;;
19482;SDS011;9882;51.166;6.992;2023-06-14T06:32:54;9.75;;;3.75;;
19482;SDS011;9882;51.166;6.992;2023-06-14T06:35:23;8.35;;;3.83;;
19482;SDS011;9882;51.166;6.992;2023-06-14T06:37:52;7.78;;;3.20;;
19482;SDS011;9882;51.166;6.992;2023-06-14T06:40:23;8.73;;;3.65;;
19482;SDS011;9882;51.166;6.992;2023-06-14T06:42:52;10.00;;;3.88;;
19482;SDS011;9882;51.166;6.992;2023-06-14T06:45:21;10.80;;;3.80;;
19482;SDS011;9882;51.166;6.992;2023-06-14T06:47:52;7.85;;;3.67;;
19482;SDS011;9882;51.166;6.992;2023-06-14T06:50:21;5.60;;;3.20;;
19482;SDS011;9882;51.166;6.992;2023-06-14T06:52:52;7.88;;;3.38;;
19482;SDS011;9882;51.166;6.992;2023-06-14T06:55:21;8.70;;;3.28;;
19482;SDS011;9882;51.166;6.992;2023-06-14T06:57:51;7.75;;;3.33;;
19482;SDS011;9882;51.166;6.992;2023-06-14T07:00:21;9.48;;;3.58;;
19482;SDS011;9882;51.166;6.992;2023-06-14T07:02:50;4.60;;;2.80;;
19482;SDS011;9882;51.166;6.992;2023-06-14T07:05:19;5.10;;;2.75;;
19482;SDS011;9882;51.166;6.992;2023-06-14T07:07:48;8.80;;;3.08;;
19482;SDS011;9882;51.166;6.992;2023-06-14T07:10:17;10.07;;;3.20;;
19482;SDS011;9882;51.166;6.992;2023-06-14T07:12:46;6.85;;;2.72;;
19482;SDS011;9882;51.166;6.992;2023-06-14T07:15:17;4.22;;;2.40;;
19482;SDS011;9882;51.166;6.992;2023-06-14T07:17:46;4.43;;;2.70;;
19482;SDS011;9882;51.166;6.992;2023-06-14T07:20:14;7.43;;;2.70;;
19482;SDS011;9882;51.166;6.992;2023-06-14T07:22:43;7.88;;;3.03;;
19482;SDS011;9882;51.166;6.992;2023-06-14T07:25:13;7.40;;;2.70;;
19482;SDS011;9882;51.166;6.992;2023-06-14T07:27:43;4.25;;;2.55;;
19482;SDS011;9882;51.166;6.992;2023-06-14T07:30:13;8.02;;;2.78;;
19482;SDS011;9882;51.166;6.992;2023-06-14T07:32:43;4.60;;;2.60;;
19482;SDS011;9882;51.166;6.992;2023-06-14T07:35:12;4.25;;;2.45;;
19482;SDS011;9882;51.166;6.992;2023-06-14T07:37:41;5.70;;;2.65;;
19482;SDS011;9882;51.166;6.992;2023-06-14T07:40:11;6.13;;;2.58;;
19482;SDS011;9882;51.166;6.992;2023-06-14T07:42:40;4.85;;;2.30;;
19482;SDS011;9882;51.166;6.992;2023-06-14T07:45:10;5.93;;;2.50;;
19482;SDS011;9882;51.166;6.992;2023-06-14T07:47:40;3.75;;;2.45;;
19482;SDS011;9882;51.166;6.992;2023-06-14T07:50:11;5.05;;;2.50;;
19482;SDS011;9882;51.166;6.992;2023-06-14T07:52:40;10.10;;;2.67;;
19482;SDS011;9882;51.166;6.992;2023-06-14T07:55:09;3.47;;;2.47;;
19482;SDS011;9882;51.166;6.992;2023-06-14T07:57:38;4.93;;;2.33;;
19482;SDS011;9882;51.166;6.992;2023-06-14T08:00:07;3.05;;;2.20;;
19482;SDS011;9882;51.166;6.992;2023-06-14T08:02:41;4.32;;;2.20;;
19482;SDS011;9882;51.166;6.992;2023-06-14T08:05:12;5.00;;;2.45;;
19482;SDS011;9882;51.166;6.992;2023-06-14T08:07:41;4.20;;;2.40;;
19482;SDS011;9882;51.166;6.992;2023-06-14T08:10:10;4.07;;;2.30;;
19482;SDS011;9882;51.166;6.992;2023-06-14T08:12:39;5.45;;;2.45;;
19482;SDS011;9882;51.166;6.992;2023-06-14T08:15:08;6.97;;;2.60;;
19482;SDS011;9882;51.166;6.992;2023-06-14T08:17:40;4.30;;;2.38;;
19482;SDS011;9882;51.166;6.992;2023-06-14T08:20:12;8.68;;;2.67;;
19482;SDS011;9882;51.166;6.992;2023-06-14T08:22:43;4.80;;;2.15;;
19482;SDS011;9882;51.166;6.992;2023-06-14T08:25:13;5.20;;;2.25;;
19482;SDS011;9882;51.166;6.992;2023-06-14T08:27:42;4.63;;;2.10;;
19482;SDS011;9882;51.166;6.992;2023-06-14T08:30:12;3.67;;;2.35;;
19482;SDS011;9882;51.166;6.992;2023-06-14T08:32:41;10.82;;;2.60;;
19482;SDS011;9882;51.166;6.992;2023-06-14T08:35:12;5.18;;;2.60;;
19482;SDS011;9882;51.166;6.992;2023-06-14T08:37:41;8.38;;;3.00;;
19482;SDS011;9882;51.166;6.992;2023-06-14T08:40:16;4.43;;;2.67;;
19482;SDS011;9882;51.166;6.992;2023-06-14T08:42:50;4.55;;;2.60;;
19482;SDS011;9882;51.166;6.992;2023-06-14T08:45:20;8.60;;;2.90;;
19482;SDS011;9882;51.166;6.992;2023-06-14T08:47:51;6.35;;;2.67;;
19482;SDS011;9882;51.166;6.992;2023-06-14T08:50:26;8.10;;;2.85;;
19482;SDS011;9882;51.166;6.992;2023-06-14T08:52:58;8.07;;;2.95;;
19482;SDS011;9882;51.166;6.992;2023-06-14T08:55:29;5.85;;;2.45;;
19482;SDS011;9882;51.166;6.992;2023-06-14T08:58:02;4.75;;;2.40;;
19482;SDS011;9882;51.166;6.992;2023-06-14T09:00:31;7.35;;;2.47;;
19482;SDS011;9882;51.166;6.992;2023-06-14T09:03:01;4.72;;;2.33;;
19482;SDS011;9882;51.166;6.992;2023-06-14T09:05:31;8.57;;;2.50;;
19482;SDS011;9882;51.166;6.992;2023-06-14T09:08:00;5.78;;;2.35;;
19482;SDS011;9882;51.166;6.992;2023-06-14T09:10:32;5.10;;;2.00;;
19482;SDS011;9882;51.166;6.992;2023-06-14T09:13:04;4.63;;;2.38;;
19482;SDS011;9882;51.166;6.992;2023-06-14T09:15:34;3.33;;;2.10;;
19482;SDS011;9882;51.166;6.992;2023-06-14T09:18:03;4.68;;;2.42;;
19482;SDS011;9882;51.166;6.992;2023-06-14T09:20:34;4.13;;;2.17;;
19482;SDS011;9882;51.166;6.992;2023-06-14T09:23:04;3.63;;;2.30;;
19482;SDS011;9882;51.166;6.992;2023-06-14T09:25:41;5.70;;;2.45;;
19482;SDS011;9882;51.166;6.992;2023-06-14T09:28:11;11.20;;;2.67;;
19482;SDS011;9882;51.166;6.992;2023-06-14T09:30:40;4.07;;;2.00;;
19482;SDS011;9882;51.166;6.992;2023-06-14T09:33:09;3.95;;;2.10;;
19482;SDS011;9882;51.166;6.992;2023-06-14T09:35:40;3.38;;;2.10;;
19482;SDS011;9882;51.166;6.992;2023-06-14T09:38:09;2.20;;;2.00;;
19482;SDS011;9882;51.166;6.992;2023-06-14T09:40:39;4.93;;;2.05;;
19482;SDS011;9882;51.166;6.992;2023-06-14T09:43:08;4.60;;;2.42;;
19482;SDS011;9882;51.166;6.992;2023-06-14T09:45:38;5.47;;;2.60;;
19482;SDS011;9882;51.166;6.992;2023-06-14T09:48:08;7.82;;;2.42;;
19482;SDS011;9882;51.166;6.992;2023-06-14T09:50:37;4.13;;;1.92;;
19482;SDS011;9882;51.166;6.992;2023-06-14T09:53:10;8.10;;;2.63;;
19482;SDS011;9882;51.166;6.992;2023-06-14T09:55:40;5.10;;;2.47;;
19482;SDS011;9882;51.166;6.992;2023-06-14T09:58:10;6.78;;;2.40;;
19482;SDS011;9882;51.166;6.992;2023-06-14T10:00:40;6.53;;;2.70;;
19482;SDS011;9882;51.166;6.992;2023-06-14T10:03:11;4.68;;;2.20;;
19482;SDS011;9882;51.166;6.992;2023-06-14T10:05:43;6.28;;;2.75;;
19482;SDS011;9882;51.166;6.992;2023-06-14T10:08:16;6.05;;;2.30;;
19482;SDS011;9882;51.166;6.992;2023-06-14T10:10:47;3.92;;;2.45;;
19482;SDS011;9882;51.166;6.992;2023-06-14T10:13:16;4.18;;;2.30;;
19482;SDS011;9882;51.166;6.992;2023-06-14T10:15:48;4.57;;;2.45;;
19482;SDS011;9882;51.166;6.992;2023-06-14T10:18:25;8.43;;;2.83;;
19482;SDS011;9882;51.166;6.992;2023-06-14T10:21:04;5.82;;;2.65;;
19482;SDS011;9882;51.166;6.992;2023-06-14T10:23:46;5.43;;;2.50;;
19482;SDS011;9882;51.166;6.992;2023-06-14T10:26:19;5.30;;;2.30;;
19482;SDS011;9882;51.166;6.992;2023-06-14T10:28:56;5.43;;;2.55;;
19482;SDS011;9882;51.166;6.992;2023-06-14T10:31:41;5.80;;;2.45;;
19482;SDS011;9882;51.166;6.992;2023-06-14T10:34:11;4.03;;;2.55;;
19482;SDS011;9882;51.166;6.992;2023-06-14T10:37:00;10.07;;;2.70;;
19482;SDS011;9882;51.166;6.992;2023-06-14T10:39:37;7.60;;;2.78;;
19482;SDS011;9882;51.166;6.992;2023-06-14T10:42:08;4.78;;;2.60;;
19482;SDS011;9882;51.166;6.992;2023-06-14T10:44:41;3.85;;;2.55;;
19482;SDS011;9882;51.166;6.992;2023-06-14T10:47:24;5.75;;;2.42;;
19482;SDS011;9882;51.166;6.992;2023-06-14T10:49:54;8.35;;;2.60;;
19482;SDS011;9882;51.166;6.992;2023-06-14T10:52:26;11.48;;;2.78;;
19482;SDS011;9882;51.166;6.992;2023-06-14T10:57:43;8.63;;;3.00;;
19482;SDS011;9882;51.166;6.992;2023-06-14T11:00:17;6.15;;;2.50;;
19482;SDS011;9882;51.166;6.992;2023-06-14T11:02:56;9.70;;;2.83;;
19482;SDS011;9882;51.166;6.992;2023-06-14T11:05:56;4.97;;;2.50;;
19482;SDS011;9882;51.166;6.992;2023-06-14T11:11:25;6.53;;;2.47;;
19482;SDS011;9882;51.166;6.992;2023-06-14T11:14:01;6.40;;;2.30;;
19482;SDS011;9882;51.166;6.992;2023-06-14T11:16:30;5.05;;;2.50;;
19482;SDS011;9882;51.166;6.992;2023-06-14T11:19:00;5.78;;;2.40;;
19482;SDS011;9882;51.166;6.992;2023-06-14T11:21:31;3.58;;;2.20;;
19482;SDS011;9882;51.166;6.992;2023-06-14T11:24:01;5.38;;;2.50;;
19482;SDS011;9882;51.166;6.992;2023-06-14T11:26:31;4.78;;;2.35;;
19482;SDS011;9882;51.166;6.992;2023-06-14T11:29:02;7.28;;;2.30;;
19482;SDS011;9882;51.166;6.992;2023-06-14T11:31:31;6.28;;;2.53;;
19482;SDS011;9882;51.166;6.992;2023-06-14T11:34:00;7.95;;;2.33;;
19482;SDS011;9882;51.166;6.992;2023-06-14T11:36:31;4.30;;;2.25;;
19482;SDS011;9882;51.166;6.992;2023-06-14T11:39:02;4.68;;;2.30;;
19482;SDS011;9882;51.166;6.992;2023-06-14T11:41:36;5.22;;;2.28;;
19482;SDS011;9882;51.166;6.992;2023-06-14T11:44:07;5.72;;;2.42;;
19482;SDS011;9882;51.166;6.992;2023-06-14T11:46:36;3.97;;;2.35;;
19482;SDS011;9882;51.166;6.992;2023-06-14T11:49:06;7.20;;;2.10;;
19482;SDS011;9882;51.166;6.992;2023-06-14T11:51:36;2.58;;;1.98;;
19482;SDS011;9882;51.166;6.992;2023-06-14T11:54:06;2.30;;;2.00;;
19482;SDS011;9882;51.166;6.992;2023-06-14T11:56:37;4.05;;;2.10;;
19482;SDS011;9882;51.166;6.992;2023-06-14T11:59:06;2.92;;;2.13;;
19482;SDS011;9882;51.166;6.992;2023-06-14T12:01:36;5.28;;;2.35;;
19482;SDS011;9882;51.166;6.992;2023-06-14T12:04:06;6.18;;;2.05;;
19482;SDS011;9882;51.166;6.992;2023-06-14T12:06:35;6.90;;;2.40;;
19482;SDS011;9882;51.166;6.992;2023-06-14T12:09:06;4.57;;;2.10;;
19482;SDS011;9882;51.166;6.992;2023-06-14T12:11:41;8.50;;;2.42;;
19482;SDS011;9882;51.166;6.992;2023-06-14T12:14:10;4.90;;;1.75;;
19482;SDS011;9882;51.166;6.992;2023-06-14T12:16:39;3.03;;;1.92;;
19482;SDS011;9882;51.166;6.992;2023-06-14T12:19:12;2.05;;;1.85;;
19482;SDS011;9882;51.166;6.992;2023-06-14T12:21:42;5.63;;;2.20;;
19482;SDS011;9882;51.166;6.992;2023-06-14T12:24:15;3.15;;;1.98;;
19482;SDS011;9882;51.166;6.992;2023-06-14T12:26:45;3.90;;;1.80;;
19482;SDS011;9882;51.166;6.992;2023-06-14T12:29:14;2.63;;;1.83;;
19482;SDS011;9882;51.166;6.992;2023-06-14T12:31:43;3.20;;;1.70;;
19482;SDS011;9882;51.166;6.992;2023-06-14T12:34:12;5.43;;;2.00;;
19482;SDS011;9882;51.166;6.992;2023-06-14T12:36:41;8.15;;;2.05;;
19482;SDS011;9882;51.166;6.992;2023-06-14T12:39:13;3.63;;;2.10;;
19482;SDS011;9882;51.166;6.992;2023-06-14T12:41:42;7.80;;;2.17;;
19482;SDS011;9882;51.166;6.992;2023-06-14T12:44:12;3.63;;;1.80;;
19482;SDS011;9882;51.166;6.992;2023-06-14T12:46:42;1.90;;;1.77;;
19482;SDS011;9882;51.166;6.992;2023-06-14T12:49:11;2.50;;;1.88;;
19482;SDS011;9882;51.166;6.992;2023-06-14T12:51:40;3.13;;;1.95;;
19482;SDS011;9882;51.166;6.992;2023-06-14T12:54:09;3.88;;;1.70;;
19482;SDS011;9882;51.166;6.992;2023-06-14T12:56:39;2.78;;;1.90;;
19482;SDS011;9882;51.166;6.992;2023-06-14T12:59:08;3.97;;;2.13;;
19482;SDS011;9882;51.166;6.992;2023-06-14T13:01:39;5.03;;;1.85;;
19482;SDS011;9882;51.166;6.992;2023-06-14T13:04:08;2.15;;;1.73;;
19482;SDS011;9882;51.166;6.992;2023-06-14T13:06:37;2.15;;;1.85;;
19482;SDS011;9882;51.166;6.992;2023-06-14T13:09:06;4.43;;;1.85;;
19482;SDS011;9882;51.166;6.992;2023-06-14T13:11:36;2.67;;;1.95;;
19482;SDS011;9882;51.166;6.992;2023-06-14T13:14:05;4.05;;;2.05;;
19482;SDS011;9882;51.166;6.992;2023-06-14T13:16:49;3.97;;;1.95;;
19482;SDS011;9882;51.166;6.992;2023-06-14T13:19:18;5.10;;;1.85;;
19482;SDS011;9882;51.166;6.992;2023-06-14T13:21:47;10.52;;;1.90;;
19482;SDS011;9882;51.166;6.992;2023-06-14T13:24:17;4.97;;;2.00;;
19482;SDS011;9882;51.166;6.992;2023-06-14T13:26:46;3.10;;;1.67;;
19482;SDS011;9882;51.166;6.992;2023-06-14T13:29:15;5.03;;;2.28;;
19482;SDS011;9882;51.166;6.992;2023-06-14T13:31:44;2.00;;;1.58;;
19482;SDS011;9882;51.166;6.992;2023-06-14T13:34:14;2.45;;;1.60;;
19482;SDS011;9882;51.166;6.992;2023-06-14T13:36:44;7.28;;;2.00;;
19482;SDS011;9882;51.166;6.992;2023-06-14T13:39:13;6.30;;;2.20;;
19482;SDS011;9882;51.166;6.992;2023-06-14T13:41:42;2.65;;;1.95;;
19482;SDS011;9882;51.166;6.992;2023-06-14T13:44:11;2.17;;;1.88;;
19482;SDS011;9882;51.166;6.992;2023-06-14T13:46:42;2.72;;;1.98;;
19482;SDS011;9882;51.166;6.992;2023-06-14T13:49:11;2.72;;;1.75;;
19482;SDS011;9882;51.166;6.992;2023-06-14T13:51:41;2.03;;;1.80;;
19482;SDS011;9882;51.166;6.992;2023-06-14T13:54:12;3.63;;;2.13;;
19482;SDS011;9882;51.166;6.992;2023-06-14T13:56:42;2.72;;;1.92;;
19482;SDS011;9882;51.166;6.992;2023-06-14T13:59:11;1.85;;;1.75;;
19482;SDS011;9882;51.166;6.992;2023-06-14T14:01:40;3.58;;;2.20;;
19482;SDS011;9882;51.166;6.992;2023-06-14T14:04:09;6.75;;;2.20;;
19482;SDS011;9882;51.166;6.992;2023-06-14T14:06:38;3.10;;;1.95;;
19482;SDS011;9882;51.166;6.992;2023-06-14T14:09:09;5.82;;;2.25;;
19482;SDS011;9882;51.166;6.992;2023-06-14T14:11:38;3.63;;;2.00;;
19482;SDS011;9882;51.166;6.992;2023-06-14T14:14:09;7.55;;;2.47;;
19482;SDS011;9882;51.166;6.992;2023-06-14T14:16:38;6.35;;;2.15;;
19482;SDS011;9882;51.166;6.992;2023-06-14T14:19:07;3.17;;;2.35;;
19482;SDS011;9882;51.166;6.992;2023-06-14T14:21:36;4.18;;;2.65;;
19482;SDS011;9882;51.166;6.992;2023-06-14T14:24:05;4.47;;;2.55;;
19482;SDS011;9882;51.166;6.992;2023-06-14T14:26:36;3.25;;;2.15;;
19482;SDS011;9882;51.166;6.992;2023-06-14T14:29:05;6.10;;;2.45;;
19482;SDS011;9882;51.166;6.992;2023-06-14T14:31:34;5.40;;;2.78;;
19482;SDS011;9882;51.166;6.992;2023-06-14T14:34:03;3.70;;;2.30;;
19482;SDS011;9882;51.166;6.992;2023-06-14T14:36:32;6.00;;;2.45;;
19482;SDS011;9882;51.166;6.992;2023-06-14T14:39:04;2.83;;;2.05;;
19482;SDS011;9882;51.166;6.992;2023-06-14T14:41:34;2.70;;;2.30;;
19482;SDS011;9882;51.166;6.992;2023-06-14T14:44:06;3.25;;;2.13;;
19482;SDS011;9882;51.166;6.992;2023-06-14T14:46:35;3.15;;;2.40;;
19482;SDS011;9882;51.166;6.992;2023-06-14T14:49:05;8.68;;;2.28;;
19482;SDS011;9882;51.166;6.992;2023-06-14T14:51:33;6.30;;;2.28;;
19482;SDS011;9882;51.166;6.992;2023-06-14T14:54:03;4.07;;;2.30;;
19482;SDS011;9882;51.166;6.992;2023-06-14T14:56:33;3.88;;;2.15;;
19482;SDS011;9882;51.166;6.992;2023-06-14T14:59:05;3.78;;;2.22;;
19482;SDS011;9882;51.166;6.992;2023-06-14T15:01:34;4.13;;;2.22;;
19482;SDS011;9882;51.166;6.992;2023-06-14T15:04:03;4.53;;;2.38;;
19482;SDS011;9882;51.166;6.992;2023-06-14T15:06:32;5.93;;;2.60;;
19482;SDS011;9882;51.166;6.992;2023-06-14T15:09:03;3.40;;;2.25;;
19482;SDS011;9882;51.166;6.992;2023-06-14T15:11:32;5.93;;;2.35;;
19482;SDS011;9882;51.166;6.992;2023-06-14T15:14:03;4.20;;;2.35;;
19482;SDS011;9882;51.166;6.992;2023-06-14T15:16:32;5.03;;;2.58;;
19482;SDS011;9882;51.166;6.992;2023-06-14T15:19:01;4.38;;;2.35;;
19482;SDS011;9882;51.166;6.992;2023-06-14T15:21:32;5.88;;;2.17;;
19482;SDS011;9882;51.166;6.992;2023-06-14T15:24:01;7.28;;;2.20;;